Time;durP1;ratioP1;P1;durP2;ratioP2;P2;SDS_P1;SDS_P2;PMS_P1;PMS_P2;Temp;Humidity;BMP_temperature;BMP_pressure;BME280_temperature;BME280_humidity;BME280_pressure;Samples;Min_cycle;Max_cycle;Signal;HPM_P1;HPM_P2
2022/05/25 00:01:06;;;;;;;9.27;8.15;;;11.50;99.90;;;;;;5040023;28;20473;-60
2022/05/25 00:03:33;;;;;;;8.82;7.90;;;11.40;99.90;;;;;;5032096;28;20056;-60
2022/05/25 00:06:00;;;;;;;10.50;8.93;;;11.40;99.90;;;;;;5035312;28;20025;-59
2022/05/25 00:08:26;;;;;;;10.23;9.07;;;11.30;99.90;;;;;;5035156;28;20112;-60
2022/05/25 00:10:52;;;;;;;9.70;8.68;;;11.20;99.90;;;;;;5033123;28;20399;-60
2022/05/25 00:13:18;;;;;;;9.55;8.55;;;11.20;99.90;;;;;;5035483;28;20488;-60
2022/05/25 00:15:43;;;;;;;10.73;9.15;;;11.10;99.90;;;;;;5037442;28;20026;-60
2022/05/25 00:18:09;;;;;;;9.45;8.43;;;10.90;99.90;;;;;;5036219;28;20135;-60
2022/05/25 00:20:35;;;;;;;12.35;10.02;;;10.80;99.90;;;;;;5028416;28;20060;-60
2022/05/25 00:23:02;;;;;;;10.80;9.70;;;10.80;99.90;;;;;;5034675;28;20024;-60
2022/05/25 00:25:32;;;;;;;11.90;10.00;;;10.70;99.90;;;;;;5033848;28;20056;-59
2022/05/25 00:27:59;;;;;;;10.73;9.20;;;10.70;99.90;;;;;;5041701;28;20029;-60
2022/05/25 00:30:25;;;;;;;13.43;9.38;;;10.60;99.90;;;;;;5031201;28;20056;-60
2022/05/25 00:32:51;;;;;;;11.90;9.38;;;10.50;99.90;;;;;;5036512;28;20037;-60
2022/05/25 00:35:19;;;;;;;11.07;9.05;;;10.50;99.90;;;;;;5043790;28;20017;-60
2022/05/25 00:37:45;;;;;;;10.23;9.07;;;10.50;99.90;;;;;;5039090;28;20029;-60
2022/05/25 00:40:14;;;;;;;10.27;9.20;;;10.50;99.90;;;;;;5034890;28;20032;-60
2022/05/25 00:42:40;;;;;;;10.13;8.83;;;10.50;99.90;;;;;;5032275;28;20106;-60
2022/05/25 00:45:06;;;;;;;10.27;8.60;;;10.40;99.90;;;;;;5041665;28;20264;-60
2022/05/25 00:47:33;;;;;;;9.55;8.57;;;10.40;99.90;;;;;;5035001;28;20041;-60
2022/05/25 00:49:58;;;;;;;10.25;8.93;;;10.30;99.90;;;;;;5033355;28;20028;-60
2022/05/25 00:52:26;;;;;;;14.43;9.68;;;10.30;99.90;;;;;;5040731;28;20513;-60
2022/05/25 00:54:54;;;;;;;9.45;8.43;;;10.30;99.90;;;;;;5035391;28;20096;-60
2022/05/25 00:57:24;;;;;;;10.68;8.10;;;10.30;99.90;;;;;;5034099;28;20045;-60
2022/05/25 01:00:07;;;;;;;9.00;8.10;;;10.30;99.90;;;;;;5031842;28;20100;-60
2022/05/25 01:02:39;;;;;;;9.40;8.35;;;10.30;99.90;;;;;;5034515;28;20033;-60
2022/05/25 01:05:06;;;;;;;9.63;7.78;;;10.30;99.90;;;;;;5031180;28;20557;-58
2022/05/25 01:07:50;;;;;;;10.60;8.20;;;10.30;99.90;;;;;;5036168;28;20366;-58
2022/05/25 01:10:32;;;;;;;14.15;8.23;;;10.40;99.90;;;;;;5047203;28;20054;-58
2022/05/25 01:13:13;;;;;;;10.07;7.50;;;10.40;99.90;;;;;;5037527;28;20025;-58
2022/05/25 01:16:11;;;;;;;10.07;7.57;;;10.40;99.90;;;;;;5036056;28;20116;-58
2022/05/25 01:19:02;;;;;;;10.52;7.45;;;10.40;99.90;;;;;;5031774;28;20753;-58
2022/05/25 01:21:40;;;;;;;8.65;7.75;;;10.40;99.90;;;;;;5034104;28;20075;-58
2022/05/25 01:24:30;;;;;;;15.73;9.43;;;10.40;99.90;;;;;;5031806;28;20143;-58
2022/05/25 01:27:23;;;;;;;9.32;8.40;;;10.50;99.90;;;;;;5032008;28;20025;-58
2022/05/25 01:30:03;;;;;;;10.85;9.13;;;10.50;99.90;;;;;;5048475;28;20113;-58
2022/05/25 01:32:50;;;;;;;11.38;9.10;;;10.50;99.90;;;;;;5034137;28;20096;-58
2022/05/25 01:35:32;;;;;;;13.18;8.07;;;10.60;99.90;;;;;;5036462;28;20017;-58
2022/05/25 01:38:08;;;;;;;12.00;9.18;;;10.50;99.90;;;;;;5031508;28;20041;-58
2022/05/25 01:40:54;;;;;;;10.68;8.35;;;10.50;99.90;;;;;;5031450;28;20535;-58
2022/05/25 01:43:33;;;;;;;9.32;7.75;;;10.60;99.90;;;;;;5030050;28;21036;-58
2022/05/25 01:46:12;;;;;;;11.52;8.48;;;10.50;99.90;;;;;;5045346;28;20020;-58
2022/05/25 01:48:40;;;;;;;12.43;8.05;;;10.60;99.90;;;;;;5036926;28;20116;-58
2022/05/25 01:51:11;;;;;;;9.23;7.78;;;10.60;99.90;;;;;;5033813;28;20431;-58
2022/05/25 01:53:41;;;;;;;12.82;7.95;;;10.60;99.90;;;;;;5032238;28;20380;-58
2022/05/25 01:56:07;;;;;;;;;;;10.60;99.90;;;;;;5035712;28;20367;-58
2022/05/25 01:58:37;;;;;;;8.30;6.88;;;10.60;99.90;;;;;;5033931;28;20411;-58
2022/05/25 02:01:05;;;;;;;9.63;7.55;;;10.60;99.90;;;;;;5031166;28;20060;-58
2022/05/25 02:06:34;;;;;;;11.95;8.00;;;10.70;99.90;;;;;;5040360;28;20031;-58
2022/05/25 02:09:45;;;;;;;10.50;8.32;;;10.70;99.90;;;;;;5036131;28;20172;-58
2022/05/25 02:12:19;;;;;;;12.00;7.70;;;10.70;99.90;;;;;;5039228;28;20036;-58
2022/05/25 02:14:52;;;;;;;11.30;8.13;;;10.70;99.90;;;;;;5034372;28;20029;-58
2022/05/25 02:17:32;;;;;;;13.57;8.73;;;10.80;99.90;;;;;;5034168;28;20479;-58
2022/05/25 02:20:09;;;;;;;12.07;8.88;;;10.80;99.90;;;;;;5032215;28;20029;-58
2022/05/25 02:22:44;;;;;;;9.10;7.68;;;10.80;99.90;;;;;;5033815;28;20025;-58
2022/05/25 02:25:29;;;;;;;9.70;7.40;;;10.80;99.90;;;;;;5030964;28;20040;-58
2022/05/25 02:28:07;;;;;;;8.88;7.47;;;10.80;99.90;;;;;;5039109;28;20474;-58
2022/05/25 02:30:38;;;;;;;8.82;7.30;;;10.80;99.90;;;;;;5051541;28;20489;-58
2022/05/25 02:33:10;;;;;;;11.02;8.07;;;10.80;99.90;;;;;;5032676;28;20025;-58
2022/05/25 02:35:39;;;;;;;9.55;7.95;;;10.80;99.90;;;;;;5043528;28;20025;-58
2022/05/25 02:38:06;;;;;;;11.38;7.70;;;10.80;99.90;;;;;;5029569;28;20027;-58
2022/05/25 02:40:37;;;;;;;8.57;7.65;;;10.90;99.90;;;;;;5032848;28;20041;-58
2022/05/25 02:43:03;;;;;;;14.50;8.93;;;10.80;99.90;;;;;;5031001;28;20118;-58
2022/05/25 02:45:29;;;;;;;10.43;8.40;;;10.80;99.90;;;;;;5034691;28;20183;-59
2022/05/25 02:47:54;;;;;;;12.80;8.52;;;10.80;99.90;;;;;;5036975;28;20544;-58
2022/05/25 02:50:21;;;;;;;9.50;8.32;;;10.80;99.90;;;;;;5038553;28;20140;-58
2022/05/25 02:52:47;;;;;;;10.45;7.05;;;10.80;99.90;;;;;;5038266;28;20486;-58
2022/05/25 02:55:13;;;;;;;8.93;7.63;;;10.80;99.90;;;;;;5042332;28;20021;-58
2022/05/25 02:57:38;;;;;;;11.38;8.68;;;10.90;99.90;;;;;;5031630;28;20021;-58
2022/05/25 03:00:05;;;;;;;10.13;8.18;;;10.80;99.90;;;;;;5039614;28;20013;-58
2022/05/25 03:02:31;;;;;;;9.00;7.80;;;10.80;99.90;;;;;;5032734;28;20060;-58
2022/05/25 03:04:57;;;;;;;9.63;7.65;;;10.90;99.90;;;;;;5032705;28;20057;-58
2022/05/25 03:07:22;;;;;;;9.95;8.60;;;10.90;99.90;;;;;;5054861;28;20495;-58
2022/05/25 03:09:48;;;;;;;13.48;7.85;;;10.90;99.90;;;;;;5031328;28;20116;-58
2022/05/25 03:12:13;;;;;;;7.97;7.05;;;10.80;99.90;;;;;;5035203;28;20072;-58
2022/05/25 03:14:39;;;;;;;8.38;7.15;;;10.80;99.90;;;;;;5039681;28;20131;-58
2022/05/25 03:17:10;;;;;;;10.35;8.88;;;10.80;99.90;;;;;;5035690;28;20025;-58
2022/05/25 03:19:37;;;;;;;8.95;7.55;;;10.80;99.90;;;;;;5031385;28;20104;-58
2022/05/25 03:22:03;;;;;;;10.85;8.00;;;10.80;99.90;;;;;;5033771;28;20026;-58
2022/05/25 03:24:28;;;;;;;12.10;9.40;;;10.70;99.90;;;;;;5039416;28;20040;-58
2022/05/25 03:26:54;;;;;;;12.05;9.90;;;10.70;99.90;;;;;;5034935;28;20017;-58
2022/05/25 03:29:20;;;;;;;13.10;11.70;;;10.70;99.90;;;;;;5036549;28;20090;-58
2022/05/25 03:31:46;;;;;;;11.85;10.65;;;10.60;99.90;;;;;;5038407;28;20035;-58
2022/05/25 03:34:12;;;;;;;12.95;10.52;;;10.60;99.90;;;;;;5034157;28;20022;-58
2022/05/25 03:36:38;;;;;;;14.25;10.13;;;10.50;99.90;;;;;;5036251;28;20477;-59
2022/05/25 03:39:04;;;;;;;11.23;10.02;;;10.50;99.90;;;;;;5033579;28;20078;-58
2022/05/25 03:41:29;;;;;;;13.57;10.38;;;10.50;99.90;;;;;;5036323;28;20426;-58
2022/05/25 03:43:55;;;;;;;12.85;10.60;;;10.50;99.90;;;;;;5033704;28;20029;-58
2022/05/25 03:46:20;;;;;;;12.85;10.70;;;10.50;99.90;;;;;;5038300;28;20159;-58
2022/05/25 03:48:46;;;;;;;13.88;11.45;;;10.50;99.90;;;;;;5036209;28;20033;-58
2022/05/25 03:51:11;;;;;;;17.38;12.27;;;10.40;99.90;;;;;;5038495;28;20083;-58
2022/05/25 03:53:37;;;;;;;17.88;12.70;;;10.40;99.90;;;;;;5042227;28;20480;-58
2022/05/25 03:56:05;;;;;;;14.45;11.45;;;10.30;99.90;;;;;;5038544;28;20017;-58
2022/05/25 03:58:30;;;;;;;17.52;13.27;;;10.30;99.90;;;;;;5039288;28;20017;-58
2022/05/25 04:00:56;;;;;;;14.50;12.05;;;10.30;99.90;;;;;;5041189;28;20028;-58
2022/05/25 04:03:22;;;;;;;18.27;12.18;;;10.30;99.90;;;;;;5037038;28;20033;-58
2022/05/25 04:05:48;;;;;;;16.30;12.02;;;10.30;99.90;;;;;;5036913;28;20452;-58
2022/05/25 04:08:14;;;;;;;14.02;11.70;;;10.30;99.90;;;;;;5037419;28;20199;-58
2022/05/25 04:10:40;;;;;;;12.68;10.40;;;10.30;99.90;;;;;;5034171;28;20067;-58
2022/05/25 04:13:06;;;;;;;13.43;10.95;;;10.30;99.90;;;;;;5040151;28;20111;-58
2022/05/25 04:15:33;;;;;;;12.00;9.98;;;10.30;99.90;;;;;;5040429;28;20029;-58
2022/05/25 04:17:59;;;;;;;11.68;9.98;;;10.30;99.90;;;;;;5035169;28;20488;-58
2022/05/25 04:20:26;;;;;;;12.48;9.88;;;10.30;99.90;;;;;;5035528;28;20469;-58
2022/05/25 04:22:52;;;;;;;15.00;11.07;;;10.30;99.90;;;;;;5035589;28;20123;-58
2022/05/25 04:25:20;;;;;;;13.15;11.00;;;10.30;99.90;;;;;;5029978;28;20596;-58
2022/05/25 04:27:48;;;;;;;12.35;10.45;;;10.30;99.90;;;;;;5034604;28;20047;-58
2022/05/25 04:30:16;;;;;;;14.32;10.68;;;10.30;99.90;;;;;;5038473;28;20026;-58
2022/05/25 04:32:43;;;;;;;15.55;11.55;;;10.30;99.90;;;;;;5034028;28;20440;-58
2022/05/25 04:35:09;;;;;;;15.90;11.77;;;10.30;99.90;;;;;;5035753;28;20014;-58
2022/05/25 04:37:53;;;;;;;15.02;10.80;;;10.30;99.90;;;;;;5038429;28;20068;-58
2022/05/25 04:40:31;;;;;;;12.45;11.02;;;10.30;99.90;;;;;;5039562;28;20025;-58
2022/05/25 04:43:00;;;;;;;12.15;10.23;;;10.30;99.90;;;;;;5053022;28;20437;-58
2022/05/25 04:45:26;;;;;;;14.65;11.00;;;10.30;99.90;;;;;;5049212;28;20110;-58
2022/05/25 04:47:53;;;;;;;12.15;10.80;;;10.30;99.90;;;;;;5034663;28;20025;-57
2022/05/25 04:50:22;;;;;;;14.38;10.48;;;10.40;99.90;;;;;;5033366;28;20492;-58
2022/05/25 04:52:48;;;;;;;11.77;10.57;;;10.40;99.90;;;;;;5033083;28;20056;-58
2022/05/25 04:58:00;;;;;;;14.38;9.57;;;10.40;99.90;;;;;;5032758;28;20496;-58
2022/05/25 05:00:27;;;;;;;10.88;8.80;;;10.40;99.90;;;;;;5032920;28;20041;-58
2022/05/25 05:02:53;;;;;;;10.30;8.68;;;10.50;99.90;;;;;;5032731;28;20029;-58
2022/05/25 05:05:18;;;;;;;10.82;9.00;;;10.50;99.90;;;;;;5032825;28;20021;-58
2022/05/25 05:07:44;;;;;;;11.02;9.13;;;10.60;99.90;;;;;;5032707;28;20367;-58
2022/05/25 05:10:10;;;;;;;11.75;9.27;;;10.60;99.90;;;;;;5032945;28;20033;-58
2022/05/25 05:12:36;;;;;;;10.52;8.38;;;10.60;99.90;;;;;;5041531;28;20025;-58
2022/05/25 05:15:03;;;;;;;14.35;8.73;;;10.70;99.90;;;;;;5052225;28;20029;-57
2022/05/25 05:17:29;;;;;;;10.70;8.63;;;10.70;99.90;;;;;;5048603;28;20012;-58
2022/05/25 05:19:56;;;;;;;12.70;8.90;;;10.80;99.90;;;;;;5048181;28;20548;-57
2022/05/25 05:22:22;;;;;;;10.88;8.70;;;10.80;99.90;;;;;;5048594;28;20028;-57
2022/05/25 05:24:47;;;;;;;15.00;9.45;;;10.80;99.90;;;;;;5051054;28;20119;-58
2022/05/25 05:27:13;;;;;;;11.90;9.05;;;10.90;99.90;;;;;;5030511;28;20029;-58
2022/05/25 05:29:38;;;;;;;11.25;8.32;;;10.90;99.90;;;;;;5029208;28;20059;-58
2022/05/25 05:32:04;;;;;;;14.18;8.57;;;10.90;99.90;;;;;;5031785;28;20041;-58
2022/05/25 05:34:30;;;;;;;12.32;8.55;;;11.00;99.90;;;;;;5029152;28;20036;-58
2022/05/25 05:37:01;;;;;;;12.70;8.25;;;11.00;99.90;;;;;;5035361;28;20751;-57
2022/05/25 05:39:31;;;;;;;11.93;8.73;;;11.00;99.90;;;;;;5030585;28;20381;-58
2022/05/25 05:42:03;;;;;;;12.70;8.88;;;11.00;99.90;;;;;;5029155;28;20021;-58
2022/05/25 05:44:52;;;;;;;10.75;7.95;;;11.10;99.90;;;;;;5032261;28;20036;-58
2022/05/25 05:47:26;;;;;;;12.57;9.70;;;11.10;99.90;;;;;;5032482;28;20029;-58
2022/05/25 05:49:52;;;;;;;15.13;10.15;;;11.20;99.90;;;;;;5032526;28;20072;-58
2022/05/25 05:52:18;;;;;;;12.57;8.68;;;11.20;99.90;;;;;;5032118;28;20042;-59
2022/05/25 05:54:44;;;;;;;11.38;8.85;;;11.30;99.90;;;;;;5032353;28;20428;-58
2022/05/25 05:57:11;;;;;;;16.95;10.70;;;11.30;99.90;;;;;;5032390;28;20028;-58
2022/05/25 05:59:38;;;;;;;12.98;8.98;;;11.40;99.90;;;;;;5032509;28;20046;-58
2022/05/25 06:02:04;;;;;;;17.10;10.23;;;11.40;99.90;;;;;;5032375;28;20051;-58
2022/05/25 06:04:30;;;;;;;15.55;10.23;;;11.50;99.90;;;;;;5032276;28;20496;-58
2022/05/25 06:06:55;;;;;;;11.52;8.48;;;11.50;99.90;;;;;;5032214;28;20030;-57
2022/05/25 06:09:21;;;;;;;12.20;8.98;;;11.60;99.90;;;;;;5032381;28;20382;-58
2022/05/25 06:11:47;;;;;;;12.25;8.70;;;11.60;99.90;;;;;;5032296;28;20108;-58
2022/05/25 06:14:12;;;;;;;12.85;8.65;;;11.70;99.90;;;;;;5032441;28;20083;-57
2022/05/25 06:19:25;;;;;;;10.88;8.27;;;11.80;99.90;;;;;;5052257;28;20035;-58
2022/05/25 06:22:02;;;;;;;10.90;8.07;;;11.90;99.90;;;;;;5056063;28;20033;-58
2022/05/25 06:24:29;;;;;;;15.90;8.45;;;11.90;99.90;;;;;;5056125;28;20131;-58
2022/05/25 06:26:55;;;;;;;9.95;7.60;;;12.00;99.90;;;;;;5054740;28;20048;-58
2022/05/25 06:29:21;;;;;;;10.27;7.07;;;12.00;99.90;;;;;;5055982;28;20469;-58
2022/05/25 06:31:48;;;;;;;12.80;8.32;;;12.10;99.90;;;;;;5055805;28;20025;-58
2022/05/25 06:34:14;;;;;;;12.45;7.18;;;12.20;99.90;;;;;;5055845;28;20021;-58
2022/05/25 06:36:39;;;;;;;9.50;7.55;;;12.20;99.90;;;;;;5055644;28;20027;-58
2022/05/25 06:39:05;;;;;;;11.80;8.27;;;12.30;99.90;;;;;;5055082;28;20398;-58
2022/05/25 06:41:30;;;;;;;12.57;7.57;;;12.40;99.90;;;;;;5054620;28;20033;-58
2022/05/25 06:43:56;;;;;;;13.77;9.45;;;12.40;99.90;;;;;;5052940;28;20020;-58
2022/05/25 06:46:22;;;;;;;14.88;8.73;;;12.50;99.90;;;;;;5072254;28;20035;-58
2022/05/25 06:48:53;;;;;;;12.00;7.47;;;12.50;99.90;;;;;;5075545;28;20036;-58
2022/05/25 06:51:27;;;;;;;13.27;8.68;;;12.60;99.90;;;;;;5074428;28;20049;-57
2022/05/25 06:53:53;;;;;;;10.32;7.53;;;12.60;99.90;;;;;;5075465;28;20020;-58
2022/05/25 06:56:22;;;;;;;11.75;8.05;;;12.70;99.90;;;;;;5061030;28;20033;-58
2022/05/25 06:58:47;;;;;;;13.73;7.82;;;12.70;99.90;;;;;;5055345;28;20047;-59
2022/05/25 07:01:13;;;;;;;10.20;7.80;;;12.80;99.90;;;;;;5055268;28;20056;-58
2022/05/25 07:03:39;;;;;;;8.70;6.47;;;12.90;99.90;;;;;;5055248;28;20028;-58
2022/05/25 07:06:09;;;;;;;9.15;7.22;;;13.00;99.90;;;;;;5054909;28;20029;-58
2022/05/25 07:08:35;;;;;;;9.95;7.45;;;13.10;99.90;;;;;;5055191;28;20074;-58
2022/05/25 07:11:01;;;;;;;11.05;7.70;;;13.20;99.90;;;;;;5055035;28;20021;-58
2022/05/25 07:13:29;;;;;;;12.50;7.38;;;13.40;99.90;;;;;;5054243;28;20180;-58
2022/05/25 07:15:57;;;;;;;11.15;7.53;;;13.50;99.90;;;;;;5054744;28;20017;-58
2022/05/25 07:18:22;;;;;;;10.93;6.95;;;13.60;99.90;;;;;;5055018;28;20021;-58
2022/05/25 07:20:48;;;;;;;14.68;7.68;;;13.70;99.90;;;;;;5054816;28;20380;-58
2022/05/25 07:23:14;;;;;;;11.35;7.78;;;13.80;99.90;;;;;;5054867;28;20484;-58
2022/05/25 07:25:39;;;;;;;11.50;9.25;;;13.90;99.90;;;;;;5054128;28;20369;-58
2022/05/25 07:28:05;;;;;;;14.73;9.02;;;14.00;99.90;;;;;;5053981;28;20036;-57
2022/05/25 07:30:30;;;;;;;9.30;8.27;;;14.10;99.80;;;;;;5054536;28;20455;-58
2022/05/25 07:32:57;;;;;;;14.25;9.60;;;14.20;99.70;;;;;;5054716;28;20036;-58
2022/05/25 07:35:23;;;;;;;11.55;10.25;;;14.30;99.60;;;;;;5054520;28;20017;-58
2022/05/25 07:37:51;;;;;;;10.85;9.38;;;14.40;99.40;;;;;;5053202;28;20108;-58
2022/05/25 07:40:21;;;;;;;10.27;9.18;;;14.50;99.20;;;;;;5054580;28;20104;-58
2022/05/25 07:42:50;;;;;;;11.95;9.13;;;14.50;98.90;;;;;;5054446;28;20041;-58
2022/05/25 07:45:15;;;;;;;9.70;8.13;;;14.50;98.60;;;;;;5054353;28;20028;-58
2022/05/25 07:47:41;;;;;;;10.85;9.10;;;14.50;98.50;;;;;;5054407;28;20029;-58
2022/05/25 07:50:07;;;;;;;12.75;10.45;;;14.50;98.30;;;;;;5053324;28;20147;-58
2022/05/25 07:52:36;;;;;;;11.65;10.00;;;14.50;98.00;;;;;;5052642;28;20094;-58
2022/05/25 07:55:03;;;;;;;13.32;10.82;;;14.60;97.70;;;;;;5053124;28;20074;-59
2022/05/25 07:57:29;;;;;;;13.10;10.65;;;14.60;97.50;;;;;;5053507;28;21106;-59
2022/05/25 07:59:54;;;;;;;16.55;11.25;;;14.70;97.20;;;;;;5054035;28;20078;-58
2022/05/25 08:08:04;;;;;;;14.02;12.13;;;14.70;96.00;;;;;;5054075;28;20087;-58
2022/05/25 08:10:30;;;;;;;13.02;11.73;;;14.70;96.10;;;;;;5052744;28;20028;-58
2022/05/25 08:12:57;;;;;;;13.23;11.68;;;14.80;96.00;;;;;;5052517;28;20025;-58
2022/05/25 08:15:28;;;;;;;13.63;11.95;;;14.80;95.80;;;;;;5053943;28;20024;-58
2022/05/25 08:17:54;;;;;;;13.30;12.00;;;14.80;95.70;;;;;;5053581;28;20029;-58
2022/05/25 08:20:21;;;;;;;15.82;13.18;;;14.80;95.70;;;;;;5053748;28;20029;-59
2022/05/25 08:22:47;;;;;;;16.25;13.27;;;14.80;95.80;;;;;;5053084;28;20025;-58
2022/05/25 08:25:15;;;;;;;12.70;11.23;;;14.80;95.10;;;;;;5053604;28;20104;-58
2022/05/25 08:27:40;;;;;;;18.15;14.60;;;14.70;95.20;;;;;;5053688;28;20035;-58
2022/05/25 08:30:09;;;;;;;16.05;14.35;;;14.80;95.10;;;;;;5053606;28;20037;-58
2022/05/25 08:32:34;;;;;;;16.08;14.30;;;14.80;95.00;;;;;;5053464;28;20469;-58
2022/05/25 08:35:00;;;;;;;14.63;13.23;;;14.80;95.30;;;;;;5053354;28;20031;-58
2022/05/25 08:37:26;;;;;;;17.83;15.40;;;14.90;95.30;;;;;;5052837;28;20021;-58
2022/05/25 08:39:51;;;;;;;19.10;17.08;;;15.00;95.60;;;;;;5051390;28;20021;-58
2022/05/25 08:42:20;;;;;;;16.85;15.15;;;15.00;95.20;;;;;;5051038;28;20107;-58
2022/05/25 08:44:48;;;;;;;19.98;17.27;;;15.10;95.00;;;;;;5051725;28;20607;-58
2022/05/25 08:47:14;;;;;;;20.30;18.20;;;15.20;95.20;;;;;;5051264;28;20033;-58
2022/05/25 08:49:43;;;;;;;17.90;16.10;;;15.20;94.70;;;;;;5050692;28;20542;-58
2022/05/25 08:52:23;;;;;;;19.75;17.77;;;15.30;94.30;;;;;;5047437;28;20120;-58
2022/05/25 08:54:49;;;;;;;18.92;17.02;;;15.30;94.90;;;;;;5046031;28;20493;-64
2022/05/25 08:57:43;;;;;;;18.23;16.33;;;15.30;94.70;;;;;;5045780;28;20043;-64
2022/05/25 09:00:17;;;;;;;23.30;20.55;;;15.40;94.60;;;;;;5047574;28;20096;-63
2022/05/25 09:03:25;;;;;;;23.30;20.73;;;15.30;93.90;;;;;;5051715;28;20024;-63
2022/05/25 09:06:02;;;;;;;23.27;20.65;;;15.50;94.10;;;;;;5048451;28;20032;-63
2022/05/25 09:08:58;;;;;;;23.15;20.75;;;15.50;94.30;;;;;;5051350;28;20472;-64
2022/05/25 09:11:31;;;;;;;25.50;22.90;;;15.60;94.10;;;;;;5048634;28;20029;-64
2022/05/25 09:14:06;;;;;;;22.02;19.73;;;15.70;94.10;;;;;;5050578;28;20531;-64
2022/05/25 09:16:36;;;;;;;21.98;19.73;;;15.90;93.80;;;;;;5050195;28;20036;-64
2022/05/25 09:19:08;;;;;;;19.75;17.85;;;16.00;93.50;;;;;;5033532;28;20025;-64
2022/05/25 09:21:40;;;;;;;20.02;17.95;;;16.10;93.60;;;;;;5051011;28;20493;-64
2022/05/25 09:24:14;;;;;;;17.50;15.90;;;16.30;92.90;;;;;;5050968;28;20025;-64
2022/05/25 09:26:42;;;;;;;18.95;16.95;;;16.30;92.60;;;;;;5050972;28;20036;-64
2022/05/25 09:29:08;;;;;;;15.15;13.55;;;16.40;92.40;;;;;;5048270;28;20032;-64
2022/05/25 09:31:46;;;;;;;16.40;14.73;;;16.50;92.20;;;;;;5049468;28;20029;-64
2022/05/25 09:34:28;;;;;;;16.08;14.48;;;16.60;91.10;;;;;;5050895;28;20017;-64
2022/05/25 09:36:59;;;;;;;14.85;13.35;;;16.60;90.80;;;;;;5035070;28;20102;-64
2022/05/25 09:39:31;;;;;;;15.07;13.43;;;16.60;90.50;;;;;;5045336;28;20025;-64
2022/05/25 09:41:59;;;;;;;15.30;13.80;;;16.60;90.50;;;;;;5045264;28;20021;-64
2022/05/25 09:44:26;;;;;;;12.57;11.38;;;16.70;90.40;;;;;;5050750;28;20472;-64
2022/05/25 09:46:59;;;;;;;11.27;10.27;;;16.80;90.50;;;;;;5050757;28;20071;-64
2022/05/25 09:49:43;;;;;;;9.85;8.95;;;16.90;89.50;;;;;;5049594;28;20036;-64
2022/05/25 09:52:35;;;;;;;10.25;9.27;;;17.00;88.60;;;;;;5050505;28;20512;-63
2022/05/25 09:55:08;;;;;;;10.82;9.35;;;17.10;85.70;;;;;;5052107;28;20025;-64
2022/05/25 09:57:45;;;;;;;12.52;10.55;;;17.30;86.30;;;;;;5055072;28;20110;-64
2022/05/25 10:00:42;;;;;;;9.38;7.78;;;17.40;85.30;;;;;;5054796;28;20029;-64
2022/05/25 10:03:31;;;;;;;10.18;8.52;;;17.50;83.30;;;;;;5048492;28;20041;-64
2022/05/25 10:05:58;;;;;;;7.37;6.20;;;17.60;82.90;;;;;;5052002;28;20040;-63
2022/05/25 10:08:27;;;;;;;5.93;5.35;;;17.70;82.50;;;;;;5056226;28;20025;-64
2022/05/25 10:11:13;;;;;;;7.50;4.53;;;17.80;81.20;;;;;;5052249;28;20107;-64
2022/05/25 10:13:41;;;;;;;4.65;3.92;;;17.90;80.80;;;;;;5037921;28;20029;-64
2022/05/25 10:16:21;;;;;;;4.40;4.00;;;18.00;80.80;;;;;;5054463;28;20500;-64
2022/05/25 10:18:48;;;;;;;5.20;3.72;;;18.00;79.10;;;;;;5053466;28;20021;-64
2022/05/25 10:21:34;;;;;;;6.10;2.50;;;17.90;77.80;;;;;;5054152;28;20541;-64
2022/05/25 10:24:02;;;;;;;5.80;2.60;;;17.80;76.30;;;;;;5051635;28;20112;-64
2022/05/25 10:26:44;;;;;;;3.25;2.00;;;17.80;78.00;;;;;;5048817;28;20401;-64
2022/05/25 10:36:45;;;;;;;3.10;2.10;;;17.90;77.40;;;;;;5053641;28;20130;-64
2022/05/25 10:38:23;;;;;;;1.95;0.90;;;18.30;74.60;;;;;;5053880;28;20090;-64
2022/05/25 10:40:49;;;;;;;2.47;0.82;;;18.10;72.80;;;;;;5039498;28;20047;-64
2022/05/25 10:43:17;;;;;;;3.17;0.98;;;18.00;73.10;;;;;;5050973;28;20473;-64
2022/05/25 10:45:51;;;;;;;1.98;0.80;;;17.90;73.30;;;;;;5052608;28;20060;-64
2022/05/25 10:48:38;;;;;;;2.92;1.48;;;17.90;74.10;;;;;;5053974;28;20538;-64
2022/05/25 10:51:08;;;;;;;2.50;1.95;;;18.00;74.10;;;;;;5053669;28;20023;-63
2022/05/25 10:53:37;;;;;;;2.90;1.95;;;18.20;72.90;;;;;;5053667;28;20029;-64
2022/05/25 10:56:08;;;;;;;2.85;1.60;;;18.20;71.70;;;;;;5053684;28;20021;-64
2022/05/25 10:59:00;;;;;;;2.20;1.95;;;18.10;72.20;;;;;;5049913;28;20021;-64
2022/05/25 11:01:34;;;;;;;3.80;1.80;;;18.00;72.10;;;;;;5053855;28;20055;-64
2022/05/25 11:04:49;;;;;;;4.80;1.85;;;18.00;72.70;;;;;;5054766;28;20029;-64
2022/05/25 11:07:21;;;;;;;4.32;2.15;;;18.00;72.70;;;;;;5032534;28;20163;-64
2022/05/25 11:10:19;;;;;;;2.97;1.30;;;17.90;72.70;;;;;;5033166;28;20018;-64
2022/05/25 11:13:25;;;;;;;2.28;1.33;;;18.10;73.20;;;;;;5045198;28;20041;-63
2022/05/25 11:16:04;;;;;;;5.95;1.70;;;18.40;71.80;;;;;;5053739;28;20029;-64
2022/05/25 11:18:43;;;;;;;2.83;1.42;;;18.40;71.00;;;;;;5050619;28;20021;-64
2022/05/25 11:21:20;;;;;;;1.65;1.20;;;18.40;71.10;;;;;;5052738;28;20048;-64
2022/05/25 11:24:24;;;;;;;5.20;1.65;;;18.30;71.60;;;;;;5049769;28;20116;-64
2022/05/25 11:27:13;;;;;;;8.18;1.45;;;18.20;71.80;;;;;;5052990;28;20013;-64
2022/05/25 11:30:00;;;;;;;1.83;1.23;;;18.10;71.70;;;;;;5051034;28;20039;-64
2022/05/25 11:32:59;;;;;;;1.92;1.10;;;18.00;72.10;;;;;;5052398;28;20028;-63
2022/05/25 11:35:49;;;;;;;5.43;0.88;;;18.10;71.80;;;;;;5053045;28;20013;-64
2022/05/25 11:38:21;;;;;;;1.00;0.55;;;18.20;71.30;;;;;;5051905;28;20052;-64
2022/05/25 11:40:59;;;;;;;3.33;1.35;;;18.40;71.40;;;;;;5052452;28;20013;-64
2022/05/25 11:43:48;;;;;;;2.75;1.35;;;18.40;69.50;;;;;;5050308;28;20051;-63
2022/05/25 11:46:42;;;;;;;3.53;1.55;;;18.40;69.60;;;;;;5050048;28;20017;-64
2022/05/25 11:49:29;;;;;;;2.05;1.10;;;18.40;69.40;;;;;;5066267;28;20144;-64
2022/05/25 11:52:00;;;;;;;4.32;1.40;;;18.30;68.50;;;;;;5074088;28;20067;-64
2022/05/25 11:54:52;;;;;;;2.08;1.10;;;18.40;69.10;;;;;;5074339;28;20055;-64
2022/05/25 11:57:36;;;;;;;2.55;1.15;;;18.70;69.50;;;;;;5074184;28;20033;-64
2022/05/25 12:00:14;;;;;;;4.10;1.02;;;18.90;68.70;;;;;;5074289;28;20024;-64
2022/05/25 12:02:55;;;;;;;3.63;1.17;;;19.10;68.30;;;;;;5074302;28;20020;-64
2022/05/25 12:05:50;;;;;;;1.92;1.20;;;19.30;67.60;;;;;;5063769;28;20048;-64
2022/05/25 12:08:25;;;;;;;3.13;1.20;;;19.50;66.60;;;;;;5052946;28;20025;-64
2022/05/25 12:11:05;;;;;;;4.88;1.10;;;19.60;65.60;;;;;;5054051;28;20048;-64
2022/05/25 12:13:46;;;;;;;3.03;1.00;;;19.70;64.30;;;;;;5053777;28;20078;-64
2022/05/25 12:16:19;;;;;;;1.17;0.85;;;19.50;63.60;;;;;;5052554;28;20017;-64
2022/05/25 12:19:03;;;;;;;1.60;1.02;;;19.40;64.30;;;;;;5053159;28;20045;-64
2022/05/25 12:21:43;;;;;;;2.95;0.90;;;19.50;64.40;;;;;;5053977;28;20096;-64
2022/05/25 12:24:22;;;;;;;3.05;0.80;;;19.70;64.90;;;;;;5053724;28;20075;-64
2022/05/25 12:26:48;;;;;;;1.98;0.85;;;20.00;63.20;;;;;;5053851;28;20048;-64
2022/05/25 12:29:19;;;;;;;1.92;0.70;;;20.20;62.10;;;;;;5053565;28;20469;-63
2022/05/25 12:31:48;;;;;;;1.63;0.55;;;20.40;60.80;;;;;;5053550;28;20028;-64
2022/05/25 12:34:18;;;;;;;3.70;0.75;;;20.20;60.60;;;;;;5052183;28;20038;-64
2022/05/25 12:36:44;;;;;;;1.98;0.60;;;20.10;60.50;;;;;;5053461;28;20128;-63
2022/05/25 12:39:10;;;;;;;4.45;0.60;;;19.90;60.90;;;;;;5052218;28;20492;-63
2022/05/25 12:41:38;;;;;;;1.63;0.50;;;19.80;60.80;;;;;;5053176;28;20481;-64
2022/05/25 12:50:34;;;;;;;2.05;1.10;;;19.40;62.20;;;;;;5050926;28;20384;-63
2022/05/25 12:53:26;;;;;;;2.63;0.70;;;19.30;60.70;;;;;;5052138;28;20056;-64
2022/05/25 12:55:57;;;;;;;0.93;0.40;;;19.20;60.00;;;;;;5053102;28;20064;-63
2022/05/25 12:58:35;;;;;;;2.00;0.60;;;19.20;60.50;;;;;;5052310;28;20388;-63
2022/05/25 13:01:12;;;;;;;1.45;0.50;;;19.40;60.40;;;;;;5051594;28;20040;-63
2022/05/25 13:04:12;;;;;;;2.30;0.50;;;19.40;59.60;;;;;;5052590;28;20040;-64
2022/05/25 13:06:38;;;;;;;1.83;0.40;;;19.40;59.60;;;;;;5053108;28;20078;-63
2022/05/25 13:09:07;;;;;;;2.00;0.60;;;19.40;59.80;;;;;;5052921;28;20104;-63
2022/05/25 13:11:49;;;;;;;1.35;0.50;;;19.30;59.80;;;;;;5048879;28;20115;-63
2022/05/25 13:14:35;;;;;;;2.17;0.50;;;19.20;60.80;;;;;;5032761;28;20021;-63
2022/05/25 13:17:03;;;;;;;1.25;0.50;;;19.20;61.20;;;;;;5049214;28;20021;-63
2022/05/25 13:19:31;;;;;;;1.40;0.40;;;19.20;61.50;;;;;;5051677;28;20419;-64
2022/05/25 13:22:03;;;;;;;1.92;0.55;;;19.30;61.90;;;;;;5050918;28;20071;-63
2022/05/25 13:24:46;;;;;;;5.22;0.57;;;19.40;60.30;;;;;;5046137;28;20066;-64
2022/05/25 13:27:15;;;;;;;2.67;0.73;;;19.40;60.90;;;;;;5048049;28;20033;-63
2022/05/25 13:30:17;;;;;;;4.97;0.50;;;19.50;60.80;;;;;;5051557;28;20021;-64